createdAt,value
2016-02-20T00:00:01.058Z,1
2016-02-20T00:03:11.988Z,1
2016-02-20T00:06:20.963Z,1
2016-02-20T00:09:39.767Z,1
2016-02-20T00:12:41.213Z,1
2016-02-20T00:15:53.690Z,1
2016-02-20T00:19:04.513Z,1
2016-02-20T00:22:17.053Z,1
2016-02-20T00:25:35.654Z,1
2016-02-20T00:28:37.398Z,1
2016-02-20T00:31:49.582Z,1
2016-02-20T00:35:00.796Z,1
2016-02-20T00:38:10.803Z,1
2016-02-20T00:41:22.124Z,1
2016-02-20T00:44:34.820Z,1
2016-02-20T00:47:46.312Z,1
2016-02-20T00:50:56.667Z,1
2016-02-20T00:54:09.065Z,1
2016-02-20T00:57:22.480Z,1
2016-02-20T01:00:34.706Z,1
2016-02-20T01:03:44.745Z,1
2016-02-20T01:06:53.910Z,1
2016-02-20T01:10:03.906Z,1
2016-02-20T01:13:13.977Z,0
2016-02-20T01:16:23.921Z,0
2016-02-20T01:19:39.196Z,0
2016-02-20T01:22:40.787Z,0
2016-02-20T01:25:50.013Z,0
2016-02-20T01:29:02.493Z,0
2016-02-20T01:32:14.907Z,0
2016-02-20T01:35:26.196Z,0
2016-02-20T01:38:36.314Z,0
2016-02-20T01:41:45.478Z,0
2016-02-20T01:44:57.611Z,0
2016-02-20T01:48:09.982Z,0
2016-02-20T01:51:22.490Z,0
2016-02-20T01:54:34.904Z,0
2016-02-20T01:57:47.115Z,0
2016-02-20T02:00:59.357Z,0
2016-02-20T02:04:11.478Z,0
2016-02-20T02:07:23.780Z,0
2016-02-20T02:10:36.038Z,0
2016-02-20T02:13:48.655Z,0
2016-02-20T02:16:59.288Z,0
2016-02-20T02:20:11.565Z,0
2016-02-20T02:23:21.620Z,0
2016-02-20T02:26:39.862Z,0
2016-02-20T02:29:40.932Z,0
2016-02-20T02:32:51.081Z,0
2016-02-20T02:36:03.170Z,0
2016-02-20T02:39:15.272Z,0
2016-02-20T02:42:33.467Z,0
2016-02-20T02:45:34.819Z,0
2016-02-20T02:48:46.718Z,0
2016-02-20T02:51:58.491Z,0
2016-02-20T02:55:10.612Z,0
2016-02-20T02:58:22.682Z,0
2016-02-20T03:01:34.504Z,0
2016-02-20T03:04:44.370Z,0
2016-02-20T03:07:56.535Z,0
2016-02-20T03:11:05.655Z,0
2016-02-20T03:14:17.758Z,0
2016-02-20T03:17:35.421Z,0
2016-02-20T03:20:36.538Z,0
2016-02-20T03:23:45.359Z,0
2016-02-20T03:26:54.571Z,0
2016-02-20T03:30:03.937Z,0
2016-02-20T03:33:14.745Z,0
2016-02-20T03:36:30.520Z,0
2016-02-20T03:39:37.308Z,0
2016-02-20T03:42:38.458Z,0
2016-02-20T03:45:50.403Z,0
2016-02-20T03:49:02.145Z,0
2016-02-20T03:52:14.219Z,0
2016-02-20T03:55:23.586Z,0
2016-02-20T03:58:35.515Z,0
2016-02-20T04:01:46.337Z,0
2016-02-20T04:04:55.282Z,0
2016-02-20T04:08:04.587Z,0
2016-02-20T04:11:16.348Z,0
2016-02-20T04:14:33.544Z,0
2016-02-20T04:17:34.708Z,0
2016-02-20T04:20:44.075Z,0
2016-02-20T04:23:53.130Z,0
2016-02-20T04:27:05.029Z,0
2016-02-20T04:30:14.337Z,0
2016-02-20T04:33:32.516Z,0
2016-02-20T04:36:39.603Z,0
2016-02-20T04:39:40.611Z,0
2016-02-20T04:42:52.540Z,0
2016-02-20T04:46:03.737Z,0
2016-02-20T04:49:15.434Z,0
2016-02-20T04:52:33.349Z,0
2016-02-20T04:55:34.232Z,0
2016-02-20T04:58:42.662Z,0
2016-02-20T05:01:54.421Z,0
2016-02-20T05:05:05.663Z,0
2016-02-20T05:08:15.892Z,0
2016-02-20T05:11:33.807Z,0
2016-02-20T05:14:34.471Z,0
2016-02-20T05:17:46.181Z,0
2016-02-20T05:20:56.080Z,0
2016-02-20T05:24:04.463Z,0
2016-02-20T05:27:16.177Z,0
2016-02-20T05:30:32.154Z,0
2016-02-20T05:33:39.209Z,0
2016-02-20T05:36:39.873Z,1
2016-02-20T05:39:51.804Z,1
2016-02-20T05:43:03.671Z,1
2016-02-20T05:46:15.554Z,3
2016-02-20T05:49:31.362Z,5
2016-02-20T05:52:38.198Z,8
2016-02-20T05:55:38.925Z,14
2016-02-20T05:58:46.963Z,24
2016-02-20T06:01:55.956Z,38
2016-02-20T06:05:07.871Z,57
2016-02-20T06:08:18.678Z,73
2016-02-20T06:11:36.576Z,82
2016-02-20T06:14:37.335Z,76
2016-02-20T06:17:48.718Z,96
2016-02-20T06:21:00.539Z,139
2016-02-20T06:24:12.203Z,210
2016-02-20T06:27:24.167Z,233
2016-02-20T06:30:39.535Z,276
2016-02-20T06:33:40.293Z,313
2016-02-20T06:36:52.143Z,364
2016-02-20T06:40:00.980Z,414
2016-02-20T06:43:13.301Z,423
2016-02-20T06:46:22.561Z,465
2016-02-20T06:49:40.273Z,482
2016-02-20T06:52:41.453Z,475
2016-02-20T06:55:51.867Z,502
2016-02-20T06:59:03.813Z,481
2016-02-20T07:02:15.727Z,492
2016-02-20T07:05:31.660Z,521
2016-02-20T07:08:38.823Z,513
2016-02-20T07:11:39.862Z,546
2016-02-20T07:14:49.824Z,566
2016-02-20T07:18:01.301Z,573
2016-02-20T07:21:13.512Z,599
2016-02-20T07:24:31.836Z,587
2016-02-20T07:27:39.063Z,597
2016-02-20T07:30:40.258Z,623
2016-02-20T07:33:52.063Z,633
2016-02-20T07:37:04.400Z,808
2016-02-20T07:40:16.282Z,935
2016-02-20T07:43:34.527Z,964
2016-02-20T07:46:35.848Z,974
2016-02-20T07:49:48.137Z,1103
2016-02-20T07:53:00.130Z,1214
2016-02-20T07:56:12.591Z,1597
2016-02-20T07:59:31.055Z,1595
2016-02-20T08:02:38.422Z,1471
2016-02-20T08:05:39.665Z,1551
2016-02-20T08:08:51.923Z,1689
2016-02-20T08:12:04.165Z,1734
2016-02-20T08:15:16.392Z,1558
2016-02-20T08:18:32.043Z,1758
2016-02-20T08:21:39.317Z,1952
2016-02-20T08:24:40.512Z,1925
2016-02-20T08:27:52.537Z,2092
2016-02-20T08:31:03.044Z,2109
2016-02-20T08:34:15.255Z,1919
2016-02-20T08:37:31.939Z,1816
2016-02-20T08:40:39.204Z,1943
2016-02-20T08:43:40.570Z,2045
2016-02-20T08:46:51.331Z,2051
2016-02-20T08:50:03.486Z,2098
2016-02-20T08:53:15.551Z,2544
2016-02-20T08:56:24.201Z,2418
2016-02-20T08:59:35.567Z,2934
2016-02-20T09:02:44.606Z,3199
2016-02-20T09:05:56.878Z,3426
2016-02-20T09:09:06.153Z,2919
2016-02-20T09:12:15.270Z,2549
2016-02-20T09:15:33.499Z,2582
2016-02-20T09:18:34.601Z,2455
2016-02-20T09:21:44.327Z,2518
2016-02-20T09:24:55.711Z,2647
2016-02-20T09:28:07.594Z,2892
2016-02-20T09:31:18.259Z,2898
2016-02-20T09:34:36.487Z,2536
2016-02-20T09:37:37.667Z,2485
2016-02-20T09:40:48.207Z,2444
2016-02-20T09:44:00.293Z,2553
2016-02-20T09:47:10.098Z,2639
2016-02-20T09:50:22.371Z,2717
2016-02-20T09:53:38.601Z,2475
2016-02-20T09:56:39.796Z,2697
2016-02-20T09:59:49.414Z,2607
2016-02-20T10:02:59.813Z,2241
2016-02-20T10:06:09.337Z,1953
2016-02-20T10:09:20.328Z,1902
2016-02-20T10:12:38.856Z,2105
2016-02-20T10:15:40.379Z,2215
2016-02-20T10:18:52.653Z,2248
2016-02-20T10:22:04.910Z,2326
2016-02-20T10:25:16.043Z,1773
2016-02-20T10:28:31.805Z,1558
2016-02-20T10:31:39.251Z,1884
2016-02-20T10:34:40.711Z,2021
2016-02-20T10:37:55.970Z,2367
2016-02-20T10:41:05.244Z,1671
2016-02-20T10:44:17.533Z,1832
2016-02-20T10:47:36.028Z,1628
2016-02-20T10:50:37.317Z,1732
2016-02-20T10:53:49.168Z,1996
2016-02-20T10:57:01.615Z,1795
2016-02-20T11:00:13.559Z,1779
2016-02-20T11:03:31.681Z,2192
2016-02-20T11:06:39.032Z,1925
2016-02-20T11:09:40.259Z,2265
2016-02-20T11:12:52.205Z,2451
2016-02-20T11:16:04.525Z,2163
2016-02-20T11:19:16.174Z,2313
2016-02-20T11:22:32.575Z,2323
2016-02-20T11:25:39.849Z,2005
2016-02-20T11:28:41.185Z,2286
2016-02-20T11:31:53.584Z,2015
2016-02-20T11:35:02.732Z,1650
2016-02-20T11:38:14.772Z,1908
2016-02-20T11:41:32.484Z,1819
2016-02-20T11:44:39.916Z,1867
2016-02-20T11:47:41.127Z,1941
2016-02-20T11:50:53.197Z,1824
2016-02-20T11:54:05.299Z,1891
2016-02-20T11:57:16.698Z,1929
2016-02-20T12:00:34.740Z,1866
2016-02-20T12:03:35.998Z,1672
2016-02-20T12:06:44.788Z,1938
2016-02-20T12:09:55.905Z,1840
2016-02-20T12:13:08.022Z,2097
2016-02-20T12:16:20.233Z,1926
2016-02-20T12:19:38.713Z,1852
2016-02-20T12:22:39.830Z,1946
2016-02-20T12:25:50.261Z,1842
2016-02-20T12:29:01.690Z,1713
2016-02-20T12:32:11.042Z,1602
2016-02-20T12:35:20.238Z,1783
2016-02-20T12:38:38.593Z,1744
2016-02-20T12:41:39.725Z,1518
2016-02-20T12:44:52.203Z,1348
2016-02-20T12:48:01.803Z,1423
2016-02-20T12:51:13.812Z,1368
2016-02-20T12:54:31.852Z,1442
2016-02-20T12:57:39.159Z,1390
2016-02-20T13:00:40.308Z,1364
2016-02-20T13:03:49.191Z,1398
2016-02-20T13:07:01.637Z,1239
2016-02-20T13:10:13.770Z,1051
2016-02-20T13:13:23.027Z,1075
2016-02-20T13:16:35.114Z,1130
2016-02-20T13:19:44.984Z,885
2016-02-20T13:22:57.210Z,1053
2016-02-20T13:26:09.859Z,959
2016-02-20T13:29:21.867Z,1182
2016-02-20T13:32:38.532Z,962
2016-02-20T13:35:39.868Z,1004
2016-02-20T13:38:52.189Z,898
2016-02-20T13:42:04.528Z,1032
2016-02-20T13:45:16.974Z,1745
2016-02-20T13:48:32.654Z,1032
2016-02-20T13:51:40.068Z,1105
2016-02-20T13:54:41.420Z,1157
2016-02-20T13:57:53.631Z,944
2016-02-20T14:01:05.783Z,1005
2016-02-20T14:04:18.306Z,1143
2016-02-20T14:07:36.580Z,1157
2016-02-20T14:10:37.807Z,1518
2016-02-20T14:13:46.908Z,1244
2016-02-20T14:16:59.433Z,1124
2016-02-20T14:20:12.130Z,993
2016-02-20T14:23:24.263Z,1141
2016-02-20T14:26:36.632Z,970
2016-02-20T14:29:48.968Z,984
2016-02-20T14:33:01.554Z,944
2016-02-20T14:36:14.221Z,667
2016-02-20T14:39:23.713Z,952
2016-02-20T14:42:39.940Z,655
2016-02-20T14:45:41.463Z,784
2016-02-20T14:48:53.690Z,727
2016-02-20T14:52:03.698Z,869
2016-02-20T14:55:16.037Z,583
2016-02-20T14:58:31.748Z,725
2016-02-20T15:01:39.084Z,727
2016-02-20T15:04:40.453Z,529
2016-02-20T15:07:49.539Z,619
2016-02-20T15:11:02.000Z,707
2016-02-20T15:14:11.431Z,421
2016-02-20T15:17:20.266Z,331
2016-02-20T15:20:38.730Z,927
2016-02-20T15:23:40.098Z,430
2016-02-20T15:26:52.450Z,626
2016-02-20T15:30:04.677Z,697
2016-02-20T15:33:15.200Z,576
2016-02-20T15:36:33.414Z,348
2016-02-20T15:39:34.593Z,284
2016-02-20T15:42:46.976Z,348
2016-02-20T15:45:57.547Z,314
2016-02-20T15:49:09.150Z,349
2016-02-20T15:52:19.376Z,247
2016-02-20T15:55:37.715Z,256
2016-02-20T15:58:39.144Z,248
2016-02-20T16:01:51.684Z,238
2016-02-20T16:05:01.849Z,188
2016-02-20T16:08:14.423Z,131
2016-02-20T16:11:32.653Z,119
2016-02-20T16:14:39.928Z,88
2016-02-20T16:17:41.186Z,62
2016-02-20T16:20:53.225Z,60
2016-02-20T16:24:05.327Z,50
2016-02-20T16:27:17.725Z,30
2016-02-20T16:30:36.095Z,28
2016-02-20T16:33:37.353Z,19
2016-02-20T16:36:46.298Z,13
2016-02-20T16:39:55.494Z,8
2016-02-20T16:43:05.847Z,4
2016-02-20T16:46:17.933Z,3
2016-02-20T16:49:36.271Z,2
2016-02-20T16:52:37.716Z,1
2016-02-20T16:55:49.882Z,1
2016-02-20T16:59:00.155Z,1
2016-02-20T17:02:12.522Z,1
2016-02-20T17:05:24.748Z,1
2016-02-20T17:08:36.792Z,1
2016-02-20T17:11:45.800Z,1
2016-02-20T17:14:58.292Z,1
2016-02-20T17:18:10.644Z,1
2016-02-20T17:21:23.058Z,1
2016-02-20T17:24:37.787Z,1
2016-02-20T17:27:39.061Z,1
2016-02-20T17:30:51.147Z,1
2016-02-20T17:34:03.499Z,1
2016-02-20T17:37:15.554Z,1
2016-02-20T17:40:33.939Z,1
2016-02-20T17:43:35.167Z,1
2016-02-20T17:46:46.153Z,1
2016-02-20T17:49:58.658Z,1
2016-02-20T17:53:08.772Z,1
2016-02-20T17:56:19.219Z,1
2016-02-20T17:59:37.175Z,1
2016-02-20T18:02:38.321Z,1
2016-02-20T18:05:47.391Z,1
2016-02-20T18:08:58.196Z,1
2016-02-20T18:12:10.984Z,1
2016-02-20T18:15:19.837Z,1
2016-02-20T18:18:38.128Z,1
2016-02-20T18:21:39.323Z,1
2016-02-20T18:24:48.097Z,1
2016-02-20T18:28:00.308Z,1
2016-02-20T18:31:12.425Z,1
2016-02-20T18:34:24.638Z,1
2016-02-20T18:37:40.320Z,1
2016-02-20T18:40:43.625Z,1
2016-02-20T18:43:50.179Z,1
2016-02-20T18:47:02.391Z,1
2016-02-20T18:50:14.540Z,1
2016-02-20T18:53:32.551Z,1
2016-02-20T18:56:39.839Z,1
2016-02-20T18:59:40.988Z,1
2016-02-20T19:02:53.528Z,1
2016-02-20T19:06:05.851Z,1
2016-02-20T19:09:16.109Z,1
2016-02-20T19:12:31.838Z,1
2016-02-20T19:15:39.190Z,1
2016-02-20T19:18:40.340Z,1
2016-02-20T19:21:49.598Z,1
2016-02-20T19:25:01.856Z,1
2016-02-20T19:28:14.223Z,1
2016-02-20T19:31:32.359Z,1
2016-02-20T19:34:39.664Z,1
2016-02-20T19:37:40.891Z,1
2016-02-20T19:40:52.793Z,1
2016-02-20T19:44:04.999Z,1
2016-02-20T19:47:14.460Z,1
2016-02-20T19:50:32.267Z,1
2016-02-20T19:53:39.620Z,1
2016-02-20T19:56:40.784Z,1
2016-02-20T19:59:52.730Z,1
2016-02-20T20:03:04.770Z,1
2016-02-20T20:06:17.037Z,1
2016-02-20T20:09:33.766Z,1
2016-02-20T20:12:34.945Z,1
2016-02-20T20:15:46.672Z,1
2016-02-20T20:18:56.665Z,1
2016-02-20T20:22:07.298Z,1
2016-02-20T20:25:19.477Z,1
2016-02-20T20:28:35.849Z,1
2016-02-20T20:31:37.106Z,1
2016-02-20T20:34:47.723Z,1
2016-02-20T20:37:59.997Z,1
2016-02-20T20:41:11.974Z,1
2016-02-20T20:44:23.653Z,1
2016-02-20T20:47:39.134Z,1
2016-02-20T20:50:40.330Z,1
2016-02-20T20:53:52.415Z,1
2016-02-20T20:57:02.799Z,1
2016-02-20T21:00:10.806Z,1
2016-02-20T21:03:23.146Z,1
2016-02-20T21:06:35.264Z,1
2016-02-20T21:09:48.057Z,1
2016-02-20T21:12:57.205Z,1
2016-02-20T21:16:09.462Z,1
2016-02-20T21:19:18.720Z,1
2016-02-20T21:22:33.557Z,1
2016-02-20T21:25:40.942Z,1
2016-02-20T21:28:42.200Z,1
2016-02-20T21:31:53.911Z,1
2016-02-20T21:35:06.513Z,1
2016-02-20T21:38:18.756Z,1
2016-02-20T21:41:36.296Z,1
2016-02-20T21:44:37.541Z,1
2016-02-20T21:47:49.221Z,1
2016-02-20T21:51:01.338Z,1
2016-02-20T21:54:13.596Z,1
2016-02-20T21:57:31.792Z,1
2016-02-20T22:00:39.130Z,1
2016-02-20T22:03:40.388Z,1
2016-02-20T22:06:52.615Z,1
2016-02-20T22:10:04.717Z,1
2016-02-20T22:13:16.787Z,1
2016-02-20T22:16:34.718Z,1
2016-02-20T22:19:36.023Z,1
2016-02-20T22:22:48.143Z,1
2016-02-20T22:25:59.979Z,1
2016-02-20T22:29:09.628Z,1
2016-02-20T22:32:19.777Z,1
2016-02-20T22:35:38.050Z,1
2016-02-20T22:38:39.248Z,1
2016-02-20T22:41:51.584Z,1
2016-02-20T22:45:00.857Z,1
2016-02-20T22:48:10.881Z,1
2016-02-20T22:51:22.686Z,1
2016-02-20T22:54:40.929Z,1
2016-02-20T22:57:42.347Z,1
2016-02-20T23:00:54.667Z,1
2016-02-20T23:04:06.815Z,1
2016-02-20T23:07:19.299Z,1
2016-02-20T23:10:38.526Z,1
2016-02-20T23:13:38.879Z,1
2016-02-20T23:16:51.107Z,1
2016-02-20T23:20:00.225Z,1
2016-02-20T23:23:10.905Z,1
2016-02-20T23:26:22.586Z,1
2016-02-20T23:29:39.108Z,1
2016-02-20T23:32:40.429Z,1
2016-02-20T23:35:49.440Z,1
2016-02-20T23:39:01.824Z,1
2016-02-20T23:42:14.268Z,1
2016-02-20T23:45:23.480Z,1
2016-02-20T23:48:35.379Z,1
2016-02-20T23:51:47.121Z,1
2016-02-20T23:54:56.457Z,1
2016-02-20T23:58:08.656Z,1
